sensor_id;sensor_type;location;lat;lon;timestamp;P1;durP1;ratioP1;P2;durP2;ratioP2
50417;SDS011;36346;48.280;14.292;2022-09-14T00:00:45;7.91;;;7.91;;
50417;SDS011;36346;48.280;14.292;2022-09-14T00:03:59;7.67;;;7.67;;
50417;SDS011;36346;48.280;14.292;2022-09-14T00:06:53;7.75;;;7.75;;
50417;SDS011;36346;48.280;14.292;2022-09-14T00:09:45;8.05;;;8.05;;
50417;SDS011;36346;48.280;14.292;2022-09-14T00:12:38;7.67;;;7.67;;
50417;SDS011;36346;48.280;14.292;2022-09-14T00:15:34;8.12;;;8.12;;
50417;SDS011;36346;48.280;14.292;2022-09-14T00:18:27;7.53;;;7.53;;
50417;SDS011;36346;48.280;14.292;2022-09-14T00:21:20;7.98;;;7.98;;
50417;SDS011;36346;48.280;14.292;2022-09-14T00:24:12;7.82;;;7.82;;
50417;SDS011;36346;48.280;14.292;2022-09-14T00:27:06;7.44;;;7.44;;
50417;SDS011;36346;48.280;14.292;2022-09-14T00:29:58;7.56;;;7.56;;
50417;SDS011;36346;48.280;14.292;2022-09-14T00:32:52;7.53;;;7.53;;
50417;SDS011;36346;48.280;14.292;2022-09-14T00:35:45;8.58;;;8.58;;
50417;SDS011;36346;48.280;14.292;2022-09-14T00:38:38;8.03;;;8.03;;
50417;SDS011;36346;48.280;14.292;2022-09-14T00:41:32;7.87;;;7.87;;
50417;SDS011;36346;48.280;14.292;2022-09-14T00:47:18;7.67;;;7.67;;
50417;SDS011;36346;48.280;14.292;2022-09-14T00:50:11;7.91;;;7.91;;
50417;SDS011;36346;48.280;14.292;2022-09-14T00:53:04;7.88;;;7.88;;
50417;SDS011;36346;48.280;14.292;2022-09-14T00:55:56;8.58;;;8.58;;
50417;SDS011;36346;48.280;14.292;2022-09-14T00:58:50;8.17;;;8.17;;
50417;SDS011;36346;48.280;14.292;2022-09-14T01:01:46;7.98;;;7.98;;
50417;SDS011;36346;48.280;14.292;2022-09-14T01:04:14;8.34;;;8.34;;
50417;SDS011;36346;48.280;14.292;2022-09-14T01:11:59;8.52;;;8.52;;
50417;SDS011;36346;48.280;14.292;2022-09-14T01:27:48;8.17;;;8.17;;
50417;SDS011;36346;48.280;14.292;2022-09-14T01:30:18;8.73;;;8.73;;
50417;SDS011;36346;48.280;14.292;2022-09-14T01:32:58;8.40;;;8.40;;
50417;SDS011;36346;48.280;14.292;2022-09-14T01:35:30;8.01;;;8.01;;
50417;SDS011;36346;48.280;14.292;2022-09-14T01:38:06;8.19;;;8.19;;
50417;SDS011;36346;48.280;14.292;2022-09-14T01:40:38;8.10;;;8.10;;
50417;SDS011;36346;48.280;14.292;2022-09-14T01:43:09;8.04;;;8.04;;
50417;SDS011;36346;48.280;14.292;2022-09-14T01:45:43;8.13;;;8.13;;
50417;SDS011;36346;48.280;14.292;2022-09-14T01:48:14;8.11;;;8.11;;
50417;SDS011;36346;48.280;14.292;2022-09-14T01:50:46;8.07;;;8.07;;
50417;SDS011;36346;48.280;14.292;2022-09-14T01:53:18;7.83;;;7.83;;
50417;SDS011;36346;48.280;14.292;2022-09-14T02:01:01;7.87;;;7.87;;
50417;SDS011;36346;48.280;14.292;2022-09-14T02:03:34;7.58;;;7.58;;
50417;SDS011;36346;48.280;14.292;2022-09-14T02:06:08;7.88;;;7.88;;
50417;SDS011;36346;48.280;14.292;2022-09-14T02:08:39;7.68;;;7.68;;
50417;SDS011;36346;48.280;14.292;2022-09-14T02:11:07;7.77;;;7.77;;
50417;SDS011;36346;48.280;14.292;2022-09-14T02:13:35;7.87;;;7.87;;
50417;SDS011;36346;48.280;14.292;2022-09-14T02:16:02;7.84;;;7.84;;
50417;SDS011;36346;48.280;14.292;2022-09-14T02:18:31;7.93;;;7.93;;
50417;SDS011;36346;48.280;14.292;2022-09-14T02:21:00;7.43;;;7.43;;
50417;SDS011;36346;48.280;14.292;2022-09-14T02:23:31;7.42;;;7.42;;
50417;SDS011;36346;48.280;14.292;2022-09-14T02:26:01;7.64;;;7.64;;
50417;SDS011;36346;48.280;14.292;2022-09-14T02:28:29;7.30;;;7.30;;
50417;SDS011;36346;48.280;14.292;2022-09-14T02:33:43;7.62;;;7.62;;
50417;SDS011;36346;48.280;14.292;2022-09-14T02:44:12;7.49;;;7.49;;
50417;SDS011;36346;48.280;14.292;2022-09-14T02:49:41;7.60;;;7.60;;
50417;SDS011;36346;48.280;14.292;2022-09-14T02:52:17;7.50;;;7.50;;
50417;SDS011;36346;48.280;14.292;2022-09-14T02:54:57;8.43;;;8.43;;
50417;SDS011;36346;48.280;14.292;2022-09-14T02:57:29;8.04;;;8.04;;
50417;SDS011;36346;48.280;14.292;2022-09-14T02:59:56;7.84;;;7.84;;
50417;SDS011;36346;48.280;14.292;2022-09-14T03:02:24;7.84;;;7.84;;
50417;SDS011;36346;48.280;14.292;2022-09-14T03:04:53;7.86;;;7.86;;
50417;SDS011;36346;48.280;14.292;2022-09-14T03:07:21;7.84;;;7.84;;
50417;SDS011;36346;48.280;14.292;2022-09-14T03:09:49;8.16;;;8.16;;
50417;SDS011;36346;48.280;14.292;2022-09-14T03:12:16;8.31;;;8.31;;
50417;SDS011;36346;48.280;14.292;2022-09-14T03:14:44;8.81;;;8.81;;
50417;SDS011;36346;48.280;14.292;2022-09-14T03:17:12;8.80;;;8.80;;
50417;SDS011;36346;48.280;14.292;2022-09-14T03:19:39;7.85;;;7.85;;
50417;SDS011;36346;48.280;14.292;2022-09-14T03:22:07;8.27;;;8.27;;
50417;SDS011;36346;48.280;14.292;2022-09-14T03:24:35;8.43;;;8.43;;
50417;SDS011;36346;48.280;14.292;2022-09-14T03:27:02;8.26;;;8.26;;
50417;SDS011;36346;48.280;14.292;2022-09-14T03:29:30;8.46;;;8.46;;
50417;SDS011;36346;48.280;14.292;2022-09-14T03:31:58;8.51;;;8.51;;
50417;SDS011;36346;48.280;14.292;2022-09-14T03:34:25;8.53;;;8.53;;
50417;SDS011;36346;48.280;14.292;2022-09-14T03:36:53;8.84;;;8.84;;
50417;SDS011;36346;48.280;14.292;2022-09-14T03:39:20;8.80;;;8.80;;
50417;SDS011;36346;48.280;14.292;2022-09-14T03:41:48;9.41;;;9.41;;
50417;SDS011;36346;48.280;14.292;2022-09-14T03:44:15;8.75;;;8.75;;
50417;SDS011;36346;48.280;14.292;2022-09-14T03:46:43;8.68;;;8.68;;
50417;SDS011;36346;48.280;14.292;2022-09-14T03:49:10;8.48;;;8.48;;
50417;SDS011;36346;48.280;14.292;2022-09-14T03:51:38;8.99;;;8.99;;
50417;SDS011;36346;48.280;14.292;2022-09-14T03:54:06;8.68;;;8.68;;
50417;SDS011;36346;48.280;14.292;2022-09-14T03:56:34;8.73;;;8.73;;
50417;SDS011;36346;48.280;14.292;2022-09-14T03:59:01;8.83;;;8.83;;
50417;SDS011;36346;48.280;14.292;2022-09-14T04:01:29;8.48;;;8.48;;
50417;SDS011;36346;48.280;14.292;2022-09-14T04:03:59;9.15;;;9.15;;
50417;SDS011;36346;48.280;14.292;2022-09-14T04:06:26;8.97;;;8.97;;
50417;SDS011;36346;48.280;14.292;2022-09-14T04:08:54;8.95;;;8.95;;
50417;SDS011;36346;48.280;14.292;2022-09-14T04:11:22;9.08;;;9.08;;
50417;SDS011;36346;48.280;14.292;2022-09-14T04:13:51;8.93;;;8.93;;
50417;SDS011;36346;48.280;14.292;2022-09-14T04:16:19;8.82;;;8.82;;
50417;SDS011;36346;48.280;14.292;2022-09-14T04:18:48;9.05;;;9.05;;
50417;SDS011;36346;48.280;14.292;2022-09-14T04:21:16;9.38;;;9.38;;
50417;SDS011;36346;48.280;14.292;2022-09-14T04:23:45;9.06;;;9.06;;
50417;SDS011;36346;48.280;14.292;2022-09-14T04:26:33;8.89;;;8.89;;
50417;SDS011;36346;48.280;14.292;2022-09-14T04:29:00;8.46;;;8.46;;
50417;SDS011;36346;48.280;14.292;2022-09-14T04:31:29;8.81;;;8.81;;
50417;SDS011;36346;48.280;14.292;2022-09-14T04:33:57;9.06;;;9.06;;
50417;SDS011;36346;48.280;14.292;2022-09-14T04:36:26;8.94;;;8.94;;
50417;SDS011;36346;48.280;14.292;2022-09-14T04:38:58;8.85;;;8.85;;
50417;SDS011;36346;48.280;14.292;2022-09-14T04:41:26;8.45;;;8.45;;
50417;SDS011;36346;48.280;14.292;2022-09-14T04:43:55;8.90;;;8.90;;
50417;SDS011;36346;48.280;14.292;2022-09-14T04:46:25;8.96;;;8.96;;
50417;SDS011;36346;48.280;14.292;2022-09-14T04:48:54;9.19;;;9.19;;
50417;SDS011;36346;48.280;14.292;2022-09-14T04:51:22;9.53;;;9.53;;
50417;SDS011;36346;48.280;14.292;2022-09-14T04:53:51;9.03;;;9.03;;
50417;SDS011;36346;48.280;14.292;2022-09-14T04:56:20;9.54;;;9.54;;
50417;SDS011;36346;48.280;14.292;2022-09-14T04:58:53;9.14;;;9.14;;
50417;SDS011;36346;48.280;14.292;2022-09-14T05:01:22;9.06;;;9.06;;
50417;SDS011;36346;48.280;14.292;2022-09-14T05:03:51;9.60;;;9.60;;
50417;SDS011;36346;48.280;14.292;2022-09-14T05:06:23;9.14;;;9.14;;
50417;SDS011;36346;48.280;14.292;2022-09-14T05:08:51;9.22;;;9.22;;
50417;SDS011;36346;48.280;14.292;2022-09-14T05:11:21;9.74;;;9.74;;
50417;SDS011;36346;48.280;14.292;2022-09-14T05:13:49;9.88;;;9.88;;
50417;SDS011;36346;48.280;14.292;2022-09-14T05:16:21;10.19;;;10.19;;
50417;SDS011;36346;48.280;14.292;2022-09-14T05:18:49;10.09;;;10.09;;
50417;SDS011;36346;48.280;14.292;2022-09-14T05:21:18;9.88;;;9.88;;
50417;SDS011;36346;48.280;14.292;2022-09-14T05:23:47;9.52;;;9.52;;
50417;SDS011;36346;48.280;14.292;2022-09-14T05:26:19;9.72;;;9.72;;
50417;SDS011;36346;48.280;14.292;2022-09-14T05:28:50;9.57;;;9.57;;
50417;SDS011;36346;48.280;14.292;2022-09-14T05:31:19;8.90;;;8.90;;
50417;SDS011;36346;48.280;14.292;2022-09-14T05:33:47;9.69;;;9.69;;
50417;SDS011;36346;48.280;14.292;2022-09-14T05:36:14;9.42;;;9.42;;
50417;SDS011;36346;48.280;14.292;2022-09-14T05:38:42;9.71;;;9.71;;
50417;SDS011;36346;48.280;14.292;2022-09-14T05:41:11;10.66;;;10.66;;
50417;SDS011;36346;48.280;14.292;2022-09-14T05:43:39;10.63;;;10.63;;
50417;SDS011;36346;48.280;14.292;2022-09-14T05:46:11;10.70;;;10.70;;
50417;SDS011;36346;48.280;14.292;2022-09-14T05:48:40;10.59;;;10.59;;
50417;SDS011;36346;48.280;14.292;2022-09-14T05:51:12;10.51;;;10.51;;
50417;SDS011;36346;48.280;14.292;2022-09-14T05:53:41;10.53;;;10.53;;
50417;SDS011;36346;48.280;14.292;2022-09-14T05:56:10;10.43;;;10.43;;
50417;SDS011;36346;48.280;14.292;2022-09-14T05:58:38;14.28;;;14.28;;
50417;SDS011;36346;48.280;14.292;2022-09-14T06:01:08;12.89;;;12.89;;
50417;SDS011;36346;48.280;14.292;2022-09-14T06:03:37;11.65;;;11.65;;
50417;SDS011;36346;48.280;14.292;2022-09-14T06:06:05;11.75;;;11.75;;
50417;SDS011;36346;48.280;14.292;2022-09-14T06:08:33;12.15;;;12.15;;
50417;SDS011;36346;48.280;14.292;2022-09-14T06:11:05;11.59;;;11.59;;
50417;SDS011;36346;48.280;14.292;2022-09-14T06:13:34;11.84;;;11.84;;
50417;SDS011;36346;48.280;14.292;2022-09-14T06:16:03;12.45;;;12.45;;
50417;SDS011;36346;48.280;14.292;2022-09-14T06:18:31;12.82;;;12.82;;
50417;SDS011;36346;48.280;14.292;2022-09-14T06:21:00;12.37;;;12.37;;
50417;SDS011;36346;48.280;14.292;2022-09-14T06:23:28;12.34;;;12.34;;
50417;SDS011;36346;48.280;14.292;2022-09-14T06:25:57;13.08;;;13.08;;
50417;SDS011;36346;48.280;14.292;2022-09-14T06:28:26;13.06;;;13.06;;
50417;SDS011;36346;48.280;14.292;2022-09-14T06:30:54;12.34;;;12.34;;
50417;SDS011;36346;48.280;14.292;2022-09-14T06:33:22;12.36;;;12.36;;
50417;SDS011;36346;48.280;14.292;2022-09-14T06:36:03;12.49;;;12.49;;
50417;SDS011;36346;48.280;14.292;2022-09-14T06:38:31;12.03;;;12.03;;
50417;SDS011;36346;48.280;14.292;2022-09-14T06:41:00;12.09;;;12.09;;
50417;SDS011;36346;48.280;14.292;2022-09-14T06:43:31;11.46;;;11.46;;
50417;SDS011;36346;48.280;14.292;2022-09-14T06:46:01;11.05;;;11.05;;
50417;SDS011;36346;48.280;14.292;2022-09-14T06:48:30;11.67;;;11.67;;
50417;SDS011;36346;48.280;14.292;2022-09-14T06:50:59;11.89;;;11.89;;
50417;SDS011;36346;48.280;14.292;2022-09-14T06:53:27;12.10;;;12.10;;
50417;SDS011;36346;48.280;14.292;2022-09-14T06:55:56;11.36;;;11.36;;
50417;SDS011;36346;48.280;14.292;2022-09-14T06:58:25;11.90;;;11.90;;
50417;SDS011;36346;48.280;14.292;2022-09-14T07:00:53;12.69;;;12.69;;
50417;SDS011;36346;48.280;14.292;2022-09-14T07:03:20;12.57;;;12.57;;
50417;SDS011;36346;48.280;14.292;2022-09-14T07:05:48;12.76;;;12.76;;
50417;SDS011;36346;48.280;14.292;2022-09-14T07:08:15;12.15;;;12.15;;
50417;SDS011;36346;48.280;14.292;2022-09-14T07:10:43;12.34;;;12.34;;
50417;SDS011;36346;48.280;14.292;2022-09-14T07:13:11;12.13;;;12.13;;
50417;SDS011;36346;48.280;14.292;2022-09-14T07:15:38;11.76;;;11.76;;
50417;SDS011;36346;48.280;14.292;2022-09-14T07:18:06;13.09;;;13.09;;
50417;SDS011;36346;48.280;14.292;2022-09-14T07:20:34;12.44;;;12.44;;
50417;SDS011;36346;48.280;14.292;2022-09-14T07:23:01;12.59;;;12.59;;
50417;SDS011;36346;48.280;14.292;2022-09-14T07:25:29;12.92;;;12.92;;
50417;SDS011;36346;48.280;14.292;2022-09-14T07:27:56;12.92;;;12.92;;
50417;SDS011;36346;48.280;14.292;2022-09-14T07:30:24;12.76;;;12.76;;
50417;SDS011;36346;48.280;14.292;2022-09-14T07:32:53;12.70;;;12.70;;
50417;SDS011;36346;48.280;14.292;2022-09-14T07:35:20;12.32;;;12.32;;
50417;SDS011;36346;48.280;14.292;2022-09-14T07:37:48;12.49;;;12.49;;
50417;SDS011;36346;48.280;14.292;2022-09-14T07:40:15;12.66;;;12.66;;
50417;SDS011;36346;48.280;14.292;2022-09-14T07:42:48;12.79;;;12.79;;
50417;SDS011;36346;48.280;14.292;2022-09-14T07:45:19;12.74;;;12.74;;
50417;SDS011;36346;48.280;14.292;2022-09-14T07:47:46;12.85;;;12.85;;
50417;SDS011;36346;48.280;14.292;2022-09-14T07:50:14;12.47;;;12.47;;
50417;SDS011;36346;48.280;14.292;2022-09-14T07:52:42;12.68;;;12.68;;
50417;SDS011;36346;48.280;14.292;2022-09-14T07:55:09;13.04;;;13.04;;
50417;SDS011;36346;48.280;14.292;2022-09-14T07:57:38;12.55;;;12.55;;
50417;SDS011;36346;48.280;14.292;2022-09-14T08:00:22;12.73;;;12.73;;
50417;SDS011;36346;48.280;14.292;2022-09-14T08:02:51;11.74;;;11.74;;
50417;SDS011;36346;48.280;14.292;2022-09-14T08:05:19;12.61;;;12.61;;
50417;SDS011;36346;48.280;14.292;2022-09-14T08:07:46;12.10;;;12.10;;
50417;SDS011;36346;48.280;14.292;2022-09-14T08:10:14;11.83;;;11.83;;
50417;SDS011;36346;48.280;14.292;2022-09-14T08:12:41;12.39;;;12.39;;
50417;SDS011;36346;48.280;14.292;2022-09-14T08:15:09;11.94;;;11.94;;
50417;SDS011;36346;48.280;14.292;2022-09-14T08:17:37;13.83;;;13.83;;
50417;SDS011;36346;48.280;14.292;2022-09-14T08:20:05;12.93;;;12.93;;
50417;SDS011;36346;48.280;14.292;2022-09-14T08:22:34;13.35;;;13.35;;
50417;SDS011;36346;48.280;14.292;2022-09-14T08:25:01;13.71;;;13.71;;
50417;SDS011;36346;48.280;14.292;2022-09-14T08:27:29;12.96;;;12.96;;
50417;SDS011;36346;48.280;14.292;2022-09-14T08:29:57;12.02;;;12.02;;
50417;SDS011;36346;48.280;14.292;2022-09-14T08:32:25;13.35;;;13.35;;
50417;SDS011;36346;48.280;14.292;2022-09-14T08:34:52;14.76;;;14.76;;
50417;SDS011;36346;48.280;14.292;2022-09-14T08:37:20;13.72;;;13.72;;
50417;SDS011;36346;48.280;14.292;2022-09-14T08:39:47;13.27;;;13.27;;
50417;SDS011;36346;48.280;14.292;2022-09-14T08:42:18;12.82;;;12.82;;
50417;SDS011;36346;48.280;14.292;2022-09-14T08:44:50;12.48;;;12.48;;
50417;SDS011;36346;48.280;14.292;2022-09-14T08:47:32;12.38;;;12.38;;
50417;SDS011;36346;48.280;14.292;2022-09-14T08:50:09;13.41;;;13.41;;
50417;SDS011;36346;48.280;14.292;2022-09-14T08:52:39;13.27;;;13.27;;
50417;SDS011;36346;48.280;14.292;2022-09-14T09:00:41;13.06;;;13.06;;
50417;SDS011;36346;48.280;14.292;2022-09-14T09:05:59;13.87;;;13.87;;
50417;SDS011;36346;48.280;14.292;2022-09-14T09:08:52;13.43;;;13.43;;
50417;SDS011;36346;48.280;14.292;2022-09-14T09:11:25;12.76;;;12.76;;
50417;SDS011;36346;48.280;14.292;2022-09-14T09:13:56;12.10;;;12.10;;
50417;SDS011;36346;48.280;14.292;2022-09-14T09:16:25;13.10;;;13.10;;
50417;SDS011;36346;48.280;14.292;2022-09-14T09:21:24;12.47;;;12.47;;
50417;SDS011;36346;48.280;14.292;2022-09-14T09:26:44;12.43;;;12.43;;
50417;SDS011;36346;48.280;14.292;2022-09-14T09:29:12;12.08;;;12.08;;
50417;SDS011;36346;48.280;14.292;2022-09-14T09:31:59;11.78;;;11.78;;
50417;SDS011;36346;48.280;14.292;2022-09-14T09:34:59;12.33;;;12.33;;
50417;SDS011;36346;48.280;14.292;2022-09-14T09:37:47;13.59;;;13.59;;
50417;SDS011;36346;48.280;14.292;2022-09-14T09:40:16;14.15;;;14.15;;
50417;SDS011;36346;48.280;14.292;2022-09-14T09:48:15;12.44;;;12.44;;
50417;SDS011;36346;48.280;14.292;2022-09-14T09:53:23;11.50;;;11.50;;
50417;SDS011;36346;48.280;14.292;2022-09-14T09:55:51;11.81;;;11.81;;
50417;SDS011;36346;48.280;14.292;2022-09-14T09:58:20;11.23;;;11.23;;
50417;SDS011;36346;48.280;14.292;2022-09-14T10:00:55;11.27;;;11.27;;
50417;SDS011;36346;48.280;14.292;2022-09-14T10:03:26;10.88;;;10.88;;
50417;SDS011;36346;48.280;14.292;2022-09-14T10:05:59;10.60;;;10.60;;
50417;SDS011;36346;48.280;14.292;2022-09-14T10:08:29;11.02;;;11.02;;
50417;SDS011;36346;48.280;14.292;2022-09-14T10:11:01;10.69;;;10.69;;
50417;SDS011;36346;48.280;14.292;2022-09-14T10:16:04;11.06;;;11.06;;
50417;SDS011;36346;48.280;14.292;2022-09-14T10:18:32;12.36;;;12.36;;
50417;SDS011;36346;48.280;14.292;2022-09-14T10:23:30;14.61;;;14.61;;
50417;SDS011;36346;48.280;14.292;2022-09-14T10:28:40;16.06;;;16.00;;
50417;SDS011;36346;48.280;14.292;2022-09-14T10:33:44;16.64;;;16.58;;
50417;SDS011;36346;48.280;14.292;2022-09-14T10:38:53;16.63;;;16.62;;
50417;SDS011;36346;48.280;14.292;2022-09-14T10:41:26;14.86;;;14.86;;
50417;SDS011;36346;48.280;14.292;2022-09-14T10:46:40;15.94;;;15.90;;
50417;SDS011;36346;48.280;14.292;2022-09-14T10:54:26;14.90;;;14.90;;
50417;SDS011;36346;48.280;14.292;2022-09-14T10:59:56;14.69;;;14.66;;
50417;SDS011;36346;48.280;14.292;2022-09-14T11:05:18;16.31;;;16.30;;
50417;SDS011;36346;48.280;14.292;2022-09-14T11:10:49;12.48;;;12.48;;
50417;SDS011;36346;48.280;14.292;2022-09-14T11:16:20;11.91;;;11.87;;
50417;SDS011;36346;48.280;14.292;2022-09-14T11:19:15;11.72;;;11.70;;
50417;SDS011;36346;48.280;14.292;2022-09-14T11:26:53;11.85;;;11.85;;
50417;SDS011;36346;48.280;14.292;2022-09-14T11:29:29;12.31;;;12.31;;
50417;SDS011;36346;48.280;14.292;2022-09-14T11:35:10;10.77;;;10.76;;
50417;SDS011;36346;48.280;14.292;2022-09-14T11:43:00;8.74;;;8.73;;
50417;SDS011;36346;48.280;14.292;2022-09-14T11:45:42;8.88;;;8.87;;
50417;SDS011;36346;48.280;14.292;2022-09-14T11:48:21;9.57;;;9.57;;
50417;SDS011;36346;48.280;14.292;2022-09-14T11:53:55;8.88;;;8.88;;
50417;SDS011;36346;48.280;14.292;2022-09-14T11:58:56;9.10;;;9.10;;
50417;SDS011;36346;48.280;14.292;2022-09-14T12:04:05;8.50;;;8.50;;
50417;SDS011;36346;48.280;14.292;2022-09-14T12:11:38;7.23;;;7.23;;
50417;SDS011;36346;48.280;14.292;2022-09-14T12:14:12;8.28;;;8.28;;
50417;SDS011;36346;48.280;14.292;2022-09-14T12:19:35;8.67;;;8.67;;
50417;SDS011;36346;48.280;14.292;2022-09-14T12:27:36;10.06;;;10.06;;
50417;SDS011;36346;48.280;14.292;2022-09-14T12:32:51;13.23;;;13.19;;
50417;SDS011;36346;48.280;14.292;2022-09-14T12:38:37;11.68;;;11.68;;
50417;SDS011;36346;48.280;14.292;2022-09-14T12:59:10;12.85;;;12.85;;
50417;SDS011;36346;48.280;14.292;2022-09-14T13:04:14;6.52;;;6.52;;
50417;SDS011;36346;48.280;14.292;2022-09-14T13:06:47;10.26;;;10.26;;
50417;SDS011;36346;48.280;14.292;2022-09-14T13:09:19;9.82;;;9.82;;
50417;SDS011;36346;48.280;14.292;2022-09-14T13:12:07;6.82;;;6.82;;
50417;SDS011;36346;48.280;14.292;2022-09-14T13:14:47;5.82;;;5.82;;
50417;SDS011;36346;48.280;14.292;2022-09-14T13:17:18;5.74;;;5.74;;
50417;SDS011;36346;48.280;14.292;2022-09-14T13:19:54;6.51;;;6.51;;
50417;SDS011;36346;48.280;14.292;2022-09-14T13:22:24;6.13;;;6.13;;
50417;SDS011;36346;48.280;14.292;2022-09-14T13:24:52;7.01;;;7.01;;
50417;SDS011;36346;48.280;14.292;2022-09-14T13:29:47;17.70;;;17.70;;
50417;SDS011;36346;48.280;14.292;2022-09-14T13:32:24;18.65;;;18.65;;
50417;SDS011;36346;48.280;14.292;2022-09-14T13:34:52;12.29;;;12.29;;
50417;SDS011;36346;48.280;14.292;2022-09-14T13:37:22;20.13;;;20.13;;
50417;SDS011;36346;48.280;14.292;2022-09-14T13:39:52;11.71;;;11.71;;
50417;SDS011;36346;48.280;14.292;2022-09-14T13:42:21;12.00;;;12.00;;
50417;SDS011;36346;48.280;14.292;2022-09-14T13:44:50;19.04;;;19.04;;
50417;SDS011;36346;48.280;14.292;2022-09-14T13:47:19;27.32;;;27.32;;
50417;SDS011;36346;48.280;14.292;2022-09-14T13:49:48;23.83;;;23.83;;
50417;SDS011;36346;48.280;14.292;2022-09-14T13:54:48;35.28;;;35.28;;
50417;SDS011;36346;48.280;14.292;2022-09-14T13:57:18;19.45;;;19.44;;
50417;SDS011;36346;48.280;14.292;2022-09-14T14:02:32;12.63;;;12.63;;
50417;SDS011;36346;48.280;14.292;2022-09-14T14:05:02;8.20;;;8.20;;
50417;SDS011;36346;48.280;14.292;2022-09-14T14:07:33;9.82;;;9.82;;
50417;SDS011;36346;48.280;14.292;2022-09-14T14:10:01;10.55;;;10.55;;
50417;SDS011;36346;48.280;14.292;2022-09-14T14:12:33;10.66;;;10.66;;
50417;SDS011;36346;48.280;14.292;2022-09-14T14:15:05;12.92;;;12.92;;
50417;SDS011;36346;48.280;14.292;2022-09-14T14:17:36;18.49;;;18.49;;
50417;SDS011;36346;48.280;14.292;2022-09-14T14:20:27;7.60;;;7.60;;
50417;SDS011;36346;48.280;14.292;2022-09-14T14:25:28;14.25;;;14.25;;
50417;SDS011;36346;48.280;14.292;2022-09-14T14:27:59;50.43;;;50.43;;
50417;SDS011;36346;48.280;14.292;2022-09-14T14:30:28;30.94;;;30.93;;
50417;SDS011;36346;48.280;14.292;2022-09-14T14:32:57;15.30;;;15.30;;
50417;SDS011;36346;48.280;14.292;2022-09-14T14:35:27;5.53;;;5.53;;
50417;SDS011;36346;48.280;14.292;2022-09-14T14:37:55;6.86;;;6.86;;
50417;SDS011;36346;48.280;14.292;2022-09-14T14:40:23;6.73;;;6.73;;
50417;SDS011;36346;48.280;14.292;2022-09-14T14:42:53;5.91;;;5.91;;
50417;SDS011;36346;48.280;14.292;2022-09-14T14:45:22;5.87;;;5.87;;
50417;SDS011;36346;48.280;14.292;2022-09-14T14:47:53;5.34;;;5.34;;
50417;SDS011;36346;48.280;14.292;2022-09-14T14:50:26;5.49;;;5.49;;
50417;SDS011;36346;48.280;14.292;2022-09-14T14:52:54;5.76;;;5.76;;
50417;SDS011;36346;48.280;14.292;2022-09-14T14:55:23;5.33;;;5.33;;
50417;SDS011;36346;48.280;14.292;2022-09-14T14:57:51;5.53;;;5.53;;
50417;SDS011;36346;48.280;14.292;2022-09-14T15:00:21;5.39;;;5.39;;
50417;SDS011;36346;48.280;14.292;2022-09-14T15:02:50;5.49;;;5.49;;
50417;SDS011;36346;48.280;14.292;2022-09-14T15:05:18;5.26;;;5.26;;
50417;SDS011;36346;48.280;14.292;2022-09-14T15:07:45;5.53;;;5.53;;
50417;SDS011;36346;48.280;14.292;2022-09-14T15:10:16;5.42;;;5.42;;
50417;SDS011;36346;48.280;14.292;2022-09-14T15:12:43;5.39;;;5.39;;
50417;SDS011;36346;48.280;14.292;2022-09-14T15:15:15;6.29;;;6.29;;
50417;SDS011;36346;48.280;14.292;2022-09-14T15:17:44;6.20;;;6.20;;
50417;SDS011;36346;48.280;14.292;2022-09-14T15:20:12;6.04;;;6.04;;
50417;SDS011;36346;48.280;14.292;2022-09-14T15:22:39;10.81;;;10.81;;
50417;SDS011;36346;48.280;14.292;2022-09-14T15:25:11;13.62;;;13.62;;
50417;SDS011;36346;48.280;14.292;2022-09-14T15:27:39;10.23;;;10.23;;
50417;SDS011;36346;48.280;14.292;2022-09-14T15:30:08;6.41;;;6.41;;
50417;SDS011;36346;48.280;14.292;2022-09-14T15:32:36;7.30;;;7.30;;
50417;SDS011;36346;48.280;14.292;2022-09-14T15:35:04;10.72;;;10.72;;
50417;SDS011;36346;48.280;14.292;2022-09-14T15:37:33;9.50;;;9.50;;
50417;SDS011;36346;48.280;14.292;2022-09-14T15:40:01;11.78;;;11.78;;
50417;SDS011;36346;48.280;14.292;2022-09-14T15:42:29;7.90;;;7.90;;
50417;SDS011;36346;48.280;14.292;2022-09-14T15:44:56;6.74;;;6.74;;
50417;SDS011;36346;48.280;14.292;2022-09-14T15:47:24;6.39;;;6.39;;
50417;SDS011;36346;48.280;14.292;2022-09-14T15:49:51;6.12;;;6.12;;
50417;SDS011;36346;48.280;14.292;2022-09-14T15:52:19;7.46;;;7.46;;
50417;SDS011;36346;48.280;14.292;2022-09-14T15:54:46;6.12;;;6.12;;
50417;SDS011;36346;48.280;14.292;2022-09-14T15:57:15;5.55;;;5.55;;
50417;SDS011;36346;48.280;14.292;2022-09-14T15:59:43;6.44;;;6.44;;
50417;SDS011;36346;48.280;14.292;2022-09-14T16:02:10;17.19;;;17.03;;
50417;SDS011;36346;48.280;14.292;2022-09-14T16:04:38;23.99;;;23.62;;
50417;SDS011;36346;48.280;14.292;2022-09-14T16:07:07;19.34;;;19.08;;
50417;SDS011;36346;48.280;14.292;2022-09-14T16:09:37;8.71;;;8.71;;
50417;SDS011;36346;48.280;14.292;2022-09-14T16:12:06;6.55;;;6.55;;
50417;SDS011;36346;48.280;14.292;2022-09-14T16:14:35;6.15;;;6.15;;
50417;SDS011;36346;48.280;14.292;2022-09-14T16:17:03;6.45;;;6.45;;
50417;SDS011;36346;48.280;14.292;2022-09-14T16:19:31;6.02;;;6.02;;
50417;SDS011;36346;48.280;14.292;2022-09-14T16:21:59;6.00;;;6.00;;
50417;SDS011;36346;48.280;14.292;2022-09-14T16:24:26;7.90;;;7.90;;
50417;SDS011;36346;48.280;14.292;2022-09-14T16:26:54;17.23;;;17.23;;
50417;SDS011;36346;48.280;14.292;2022-09-14T16:29:24;11.20;;;11.20;;
50417;SDS011;36346;48.280;14.292;2022-09-14T16:31:52;8.55;;;8.55;;
50417;SDS011;36346;48.280;14.292;2022-09-14T16:34:29;7.21;;;7.21;;
50417;SDS011;36346;48.280;14.292;2022-09-14T16:36:57;6.42;;;6.42;;
50417;SDS011;36346;48.280;14.292;2022-09-14T16:39:26;5.94;;;5.94;;
50417;SDS011;36346;48.280;14.292;2022-09-14T16:41:55;6.12;;;6.12;;
50417;SDS011;36346;48.280;14.292;2022-09-14T16:44:24;6.91;;;6.91;;
50417;SDS011;36346;48.280;14.292;2022-09-14T16:46:52;6.91;;;6.91;;
50417;SDS011;36346;48.280;14.292;2022-09-14T16:49:21;6.98;;;6.98;;
50417;SDS011;36346;48.280;14.292;2022-09-14T16:51:53;7.72;;;7.72;;
50417;SDS011;36346;48.280;14.292;2022-09-14T16:54:22;12.01;;;12.01;;
50417;SDS011;36346;48.280;14.292;2022-09-14T16:56:50;12.36;;;12.36;;
50417;SDS011;36346;48.280;14.292;2022-09-14T16:59:17;8.70;;;8.70;;
50417;SDS011;36346;48.280;14.292;2022-09-14T17:01:46;7.57;;;7.57;;
50417;SDS011;36346;48.280;14.292;2022-09-14T17:04:22;7.68;;;7.68;;
50417;SDS011;36346;48.280;14.292;2022-09-14T17:06:51;7.21;;;7.21;;
50417;SDS011;36346;48.280;14.292;2022-09-14T17:09:20;7.26;;;7.26;;
50417;SDS011;36346;48.280;14.292;2022-09-14T17:11:48;6.97;;;6.97;;
50417;SDS011;36346;48.280;14.292;2022-09-14T17:14:18;7.19;;;7.19;;
50417;SDS011;36346;48.280;14.292;2022-09-14T17:16:46;7.09;;;7.09;;
50417;SDS011;36346;48.280;14.292;2022-09-14T17:19:14;7.12;;;7.12;;
50417;SDS011;36346;48.280;14.292;2022-09-14T17:21:43;7.02;;;7.02;;
50417;SDS011;36346;48.280;14.292;2022-09-14T17:24:11;6.98;;;6.98;;
50417;SDS011;36346;48.280;14.292;2022-09-14T17:26:40;6.95;;;6.95;;
50417;SDS011;36346;48.280;14.292;2022-09-14T17:29:09;6.72;;;6.72;;
50417;SDS011;36346;48.280;14.292;2022-09-14T17:31:38;7.10;;;7.10;;
50417;SDS011;36346;48.280;14.292;2022-09-14T17:34:07;6.94;;;6.94;;